TAF KGON
AMD KGON 080233Z 0803/0824 VRB04KT P6SM BKN120 FM081200 08005KT P6SM SCT050 OVC100 FM081600 07006KT P6SM VCSH BKN035 OVC080 PROB30 0816/0820 3SM -RASN BR BKN025 FM082000 02006KT P6SM VCSH BKN020 OVC050 PROB30 0820/0824 3SM -SNRA BR OVC010=
METAR KGON
WC KGON
WS KGON
WV KGON